Time,TemperatureF,DewpointF,PressureIn,WindDirection,WindDirectionDegrees,WindSpeedMPH,WindSpeedGustMPH,Humidity,HourlyPrecipIn,Conditions,Clouds,dailyrainin,SoftwareType,DateUTC
2013-06-04 00:04:00,63.9,59.0,29.91,West,270,4.0,7.0,84,0.00,,,0.00,meteohub,2013-06-04 07:04:00,
2013-06-04 00:09:00,63.9,59.0,29.91,West,270,2.0,7.0,84,0.00,,,0.00,meteohub,2013-06-04 07:09:00,
2013-06-04 00:14:00,63.9,59.2,29.91,West,270,2.0,6.0,85,0.00,,,0.00,meteohub,2013-06-04 07:14:00,
2013-06-04 00:19:00,63.7,59.0,29.91,South,180,2.0,5.0,85,0.00,,,0.00,meteohub,2013-06-04 07:19:00,
2013-06-04 00:24:00,63.7,59.0,29.91,SW,225,2.0,4.0,85,0.00,,,0.00,meteohub,2013-06-04 07:24:00,
2013-06-04 00:29:00,63.7,59.0,29.91,West,270,2.0,4.0,85,0.00,,,0.00,meteohub,2013-06-04 07:29:00,
2013-06-04 00:34:00,63.7,59.0,29.91,West,270,2.0,4.0,85,0.00,,,0.00,meteohub,2013-06-04 07:34:00,
2013-06-04 00:39:00,63.7,59.0,29.91,South,180,2.0,4.0,85,0.00,,,0.00,meteohub,2013-06-04 07:39:00,
2013-06-04 00:44:00,63.7,59.4,29.91,SW,225,4.0,4.0,86,0.00,,,0.00,meteohub,2013-06-04 07:44:00,
2013-06-04 00:49:00,63.5,59.2,29.91,West,270,3.0,4.0,86,0.00,,,0.00,meteohub,2013-06-04 07:49:00,
2013-06-04 00:54:00,63.7,59.4,29.91,WNW,293,4.0,4.0,86,0.00,,,0.00,meteohub,2013-06-04 07:54:00,
2013-06-04 00:59:00,63.5,59.2,29.91,West,270,4.0,4.0,86,0.00,,,0.00,meteohub,2013-06-04 07:59:00,
2013-06-04 01:04:00,63.5,59.2,29.91,West,270,3.0,8.0,86,0.00,,,0.00,meteohub,2013-06-04 08:04:00,
2013-06-04 01:09:00,63.5,59.2,29.91,SE,135,3.0,8.0,86,0.00,,,0.00,meteohub,2013-06-04 08:09:00,
2013-06-04 01:14:00,63.5,59.2,29.91,West,270,4.0,8.0,86,0.00,,,0.00,meteohub,2013-06-04 08:14:00,
2013-06-04 01:20:00,63.5,59.2,29.91,West,270,6.0,6.0,86,0.00,,,0.00,meteohub,2013-06-04 08:20:00,
2013-06-04 01:25:00,63.5,59.2,29.91,WNW,293,5.0,6.0,86,0.00,,,0.00,meteohub,2013-06-04 08:25:00,
2013-06-04 01:30:00,63.3,59.0,29.91,South,180,2.0,8.0,86,0.00,,,0.00,meteohub,2013-06-04 08:30:00,
2013-06-04 01:35:00,63.3,59.0,29.91,West,270,3.0,8.0,86,0.00,,,0.00,meteohub,2013-06-04 08:35:00,
2013-06-04 01:40:00,63.3,59.0,29.91,West,270,2.0,8.0,86,0.00,,,0.00,meteohub,2013-06-04 08:40:00,
2013-06-04 01:45:00,63.3,59.0,29.91,NW,315,9.0,9.0,86,0.00,,,0.00,meteohub,2013-06-04 08:45:00,
2013-06-04 01:50:00,63.3,59.0,29.91,SW,225,2.0,6.0,86,0.00,,,0.00,meteohub,2013-06-04 08:50:00,
2013-06-04 01:55:00,63.3,59.0,29.91,West,270,4.0,9.0,86,0.00,,,0.00,meteohub,2013-06-04 08:55:00,
2013-06-04 02:00:00,63.1,58.8,29.91,West,270,4.0,9.0,86,0.00,,,0.00,meteohub,2013-06-04 09:00:00,
2013-06-04 02:05:00,63.1,58.8,29.91,West,270,2.0,9.0,86,0.00,,,0.00,meteohub,2013-06-04 09:05:00,
2013-06-04 02:10:00,63.1,58.8,29.91,West,270,2.0,6.0,86,0.00,,,0.00,meteohub,2013-06-04 09:10:00,
2013-06-04 02:15:00,63.1,58.8,29.91,West,270,2.0,6.0,86,0.00,,,0.00,meteohub,2013-06-04 09:15:00,
2013-06-04 02:20:00,63.1,58.8,29.91,South,180,2.0,3.0,86,0.00,,,0.00,meteohub,2013-06-04 09:20:00,
2013-06-04 02:25:00,63.3,59.0,29.91,South,180,4.0,4.0,86,0.00,,,0.00,meteohub,2013-06-04 09:25:00,
2013-06-04 02:30:00,63.3,59.0,29.91,South,180,3.0,4.0,86,0.00,,,0.00,meteohub,2013-06-04 09:30:00,
2013-06-04 02:35:00,63.3,59.0,29.91,West,270,2.0,7.0,86,0.00,,,0.00,meteohub,2013-06-04 09:35:00,
2013-06-04 02:40:00,63.3,59.0,29.91,West,270,2.0,7.0,86,0.00,,,0.00,meteohub,2013-06-04 09:40:00,
2013-06-04 02:45:00,63.1,58.8,29.91,South,180,3.0,3.0,86,0.00,,,0.00,meteohub,2013-06-04 09:45:00,
2013-06-04 02:50:00,63.1,58.8,29.91,South,180,3.0,3.0,86,0.00,,,0.00,meteohub,2013-06-04 09:50:00,
2013-06-04 02:55:00,63.3,59.0,29.90,West,270,3.0,4.0,86,0.00,,,0.00,meteohub,2013-06-04 09:55:00,
2013-06-04 03:00:00,63.1,58.8,29.90,West,270,4.0,4.0,86,0.00,,,0.00,meteohub,2013-06-04 10:00:00,
2013-06-04 03:05:00,63.1,58.8,29.90,West,270,3.0,4.0,86,0.00,,,0.00,meteohub,2013-06-04 10:05:00,
2013-06-04 03:10:00,63.1,59.2,29.91,West,270,4.0,4.0,87,0.00,,,0.00,meteohub,2013-06-04 10:10:00,
2013-06-04 03:15:00,63.1,58.8,29.90,West,270,2.0,4.0,86,0.00,,,0.00,meteohub,2013-06-04 10:15:00,
2013-06-04 03:20:00,63.1,58.8,29.91,South,180,4.0,4.0,86,0.00,,,0.00,meteohub,2013-06-04 10:20:00,
2013-06-04 03:25:00,63.1,58.8,29.90,SE,135,3.0,4.0,86,0.00,,,0.00,meteohub,2013-06-04 10:25:00,
2013-06-04 03:30:00,63.1,58.8,29.91,South,180,4.0,4.0,86,0.00,,,0.00,meteohub,2013-06-04 10:30:00,
2013-06-04 03:35:00,63.1,58.8,29.91,SE,135,2.0,4.0,86,0.00,,,0.00,meteohub,2013-06-04 10:35:00,
2013-06-04 03:40:00,63.3,59.4,29.91,NW,315,3.0,4.0,87,0.00,,,0.00,meteohub,2013-06-04 10:40:00,
2013-06-04 03:45:00,63.1,59.2,29.91,South,180,3.0,4.0,87,0.00,,,0.00,meteohub,2013-06-04 10:45:00,
2013-06-04 03:50:00,63.1,59.2,29.91,South,180,1.0,4.0,87,0.00,,,0.00,meteohub,2013-06-04 10:50:00,
2013-06-04 03:55:00,63.1,59.2,29.90,South,180,2.0,4.0,87,0.00,,,0.00,meteohub,2013-06-04 10:55:00,
2013-06-04 04:00:00,63.1,59.2,29.91,South,180,2.0,4.0,87,0.00,,,0.00,meteohub,2013-06-04 11:00:00,
2013-06-04 04:05:00,63.1,59.2,29.91,South,180,2.0,3.0,87,0.00,,,0.00,meteohub,2013-06-04 11:05:00,
2013-06-04 04:10:00,63.1,59.2,29.91,SW,225,2.0,4.0,87,0.00,,,0.00,meteohub,2013-06-04 11:10:00,
2013-06-04 04:15:00,63.1,59.2,29.91,SW,225,2.0,4.0,87,0.00,,,0.00,meteohub,2013-06-04 11:15:00,
2013-06-04 04:20:00,63.1,59.2,29.91,South,180,1.0,4.0,87,0.00,,,0.00,meteohub,2013-06-04 11:20:00,
2013-06-04 04:25:00,63.1,59.2,29.91,South,180,4.0,4.0,87,0.00,,,0.00,meteohub,2013-06-04 11:25:00,
2013-06-04 04:30:00,63.1,59.2,29.91,West,270,2.0,4.0,87,0.00,,,0.00,meteohub,2013-06-04 11:30:00,
2013-06-04 04:35:00,63.0,59.0,29.92,South,180,2.0,4.0,87,0.00,,,0.00,meteohub,2013-06-04 11:35:00,
2013-06-04 04:40:00,63.0,59.0,29.92,South,180,0.0,4.0,87,0.00,,,0.00,meteohub,2013-06-04 11:40:00,
2013-06-04 04:45:00,63.0,59.0,29.92,West,270,0.0,4.0,87,0.00,,,0.00,meteohub,2013-06-04 11:45:00,
2013-06-04 04:50:00,62.8,58.8,29.92,SSE,158,3.0,4.0,87,0.00,,,0.00,meteohub,2013-06-04 11:50:00,
2013-06-04 04:55:00,63.0,59.0,29.92,SSE,158,4.0,6.0,87,0.00,,,0.00,meteohub,2013-06-04 11:55:00,
2013-06-04 05:00:00,63.0,59.0,29.92,South,180,3.0,6.0,87,0.00,,,0.00,meteohub,2013-06-04 12:00:00,
2013-06-04 05:05:00,63.0,59.4,29.92,South,180,0.0,6.0,88,0.00,,,0.00,meteohub,2013-06-04 12:05:00,
2013-06-04 05:10:00,63.0,59.0,29.92,South,180,2.0,6.0,87,0.00,,,0.00,meteohub,2013-06-04 12:10:00,
2013-06-04 05:15:00,62.8,59.2,29.92,West,270,1.0,3.0,88,0.00,,,0.00,meteohub,2013-06-04 12:15:00,
2013-06-04 05:20:00,62.8,58.8,29.92,West,270,2.0,3.0,87,0.00,,,0.00,meteohub,2013-06-04 12:20:00,
2013-06-04 05:25:00,62.8,58.8,29.92,South,180,2.0,3.0,87,0.00,,,0.00,meteohub,2013-06-04 12:25:00,
2013-06-04 05:30:00,62.8,59.2,29.92,West,270,0.0,4.0,88,0.00,,,0.00,meteohub,2013-06-04 12:30:00,
2013-06-04 05:35:00,62.8,59.2,29.92,South,180,2.0,4.0,88,0.00,,,0.00,meteohub,2013-06-04 12:35:00,
2013-06-04 05:40:00,62.8,58.8,29.92,West,270,3.0,4.0,87,0.00,,,0.00,meteohub,2013-06-04 12:40:00,
2013-06-04 05:45:00,62.8,58.8,29.92,West,270,1.0,4.0,87,0.00,,,0.00,meteohub,2013-06-04 12:45:00,
2013-06-04 05:50:00,62.8,58.8,29.92,South,180,2.0,3.0,87,0.00,,,0.00,meteohub,2013-06-04 12:50:00,
2013-06-04 05:55:00,63.0,59.0,29.92,SE,135,3.0,4.0,87,0.00,,,0.00,meteohub,2013-06-04 12:55:00,
2013-06-04 06:00:00,63.0,59.0,29.92,South,180,2.0,4.0,87,0.00,,,0.00,meteohub,2013-06-04 13:00:00,
2013-06-04 06:05:00,62.8,58.8,29.93,South,180,2.0,4.0,87,0.00,,,0.00,meteohub,2013-06-04 13:05:00,
2013-06-04 06:10:00,62.8,59.2,29.93,South,180,3.0,4.0,88,0.00,,,0.00,meteohub,2013-06-04 13:10:00,
2013-06-04 06:15:00,62.6,59.0,29.93,South,180,2.0,4.0,88,0.00,,,0.00,meteohub,2013-06-04 13:15:00,
2013-06-04 06:20:00,62.6,59.4,29.93,SE,135,3.0,4.0,89,0.00,,,0.00,meteohub,2013-06-04 13:20:00,
2013-06-04 06:25:00,62.6,59.4,29.94,SE,135,2.0,3.0,89,0.00,,,0.00,meteohub,2013-06-04 13:25:00,
2013-06-04 06:30:00,62.4,59.2,29.94,SE,135,0.0,3.0,89,0.00,,,0.00,meteohub,2013-06-04 13:30:00,
2013-06-04 06:35:00,62.4,59.4,29.94,SE,135,3.0,3.0,90,0.00,,,0.00,meteohub,2013-06-04 13:35:00,
2013-06-04 06:40:00,62.4,59.7,29.94,South,180,2.0,4.0,91,0.00,,,0.00,meteohub,2013-06-04 13:40:00,
2013-06-04 06:45:00,62.4,59.7,29.94,West,270,2.0,4.0,91,0.00,,,0.00,meteohub,2013-06-04 13:45:00,
2013-06-04 06:50:00,62.2,59.9,29.94,WNW,293,2.0,4.0,92,0.00,,,0.00,meteohub,2013-06-04 13:50:00,
2013-06-04 06:55:00,62.2,60.3,29.94,West,270,1.0,4.0,93,0.00,,,0.00,meteohub,2013-06-04 13:55:00,
2013-06-04 07:00:00,62.4,60.4,29.94,South,180,2.0,4.0,93,0.00,,,0.00,meteohub,2013-06-04 14:00:00,
2013-06-04 07:05:00,62.4,60.4,29.94,West,270,3.0,3.0,93,0.00,,,0.00,meteohub,2013-06-04 14:05:00,
2013-06-04 07:10:00,62.2,60.3,29.94,West,270,2.0,3.0,93,0.00,,,0.00,meteohub,2013-06-04 14:10:00,
2013-06-04 07:15:00,62.2,60.3,29.94,WNW,293,2.0,3.0,93,0.00,,,0.00,meteohub,2013-06-04 14:15:00,
2013-06-04 07:21:00,62.4,60.4,29.94,West,270,1.0,3.0,93,0.00,,,0.00,meteohub,2013-06-04 14:21:00,
2013-06-04 07:26:00,62.4,60.4,29.94,West,270,2.0,4.0,93,0.00,,,0.00,meteohub,2013-06-04 14:26:00,
2013-06-04 07:31:00,62.6,60.6,29.94,West,270,2.0,4.0,93,0.00,,,0.00,meteohub,2013-06-04 14:31:00,
2013-06-04 07:36:00,62.8,60.8,29.94,West,270,2.0,4.0,93,0.00,,,0.00,meteohub,2013-06-04 14:36:00,
2013-06-04 07:41:00,63.0,60.6,29.95,West,270,4.0,4.0,92,0.00,,,0.00,meteohub,2013-06-04 14:41:00,
2013-06-04 07:46:00,63.0,60.3,29.95,West,270,2.0,4.0,91,0.00,,,0.00,meteohub,2013-06-04 14:46:00,
2013-06-04 07:51:00,63.1,60.4,29.95,SW,225,2.0,4.0,91,0.00,,,0.00,meteohub,2013-06-04 14:51:00,
2013-06-04 07:56:00,63.3,60.6,29.95,West,270,3.0,4.0,91,0.00,,,0.00,meteohub,2013-06-04 14:56:00,
2013-06-04 08:01:00,63.5,60.3,29.95,West,270,2.0,4.0,89,0.00,,,0.00,meteohub,2013-06-04 15:01:00,
2013-06-04 08:06:00,63.7,60.4,29.95,West,270,4.0,4.0,89,0.00,,,0.00,meteohub,2013-06-04 15:06:00,
2013-06-04 08:11:00,64.2,61.0,29.95,South,180,2.0,4.0,89,0.00,,,0.00,meteohub,2013-06-04 15:11:00,
2013-06-04 08:16:00,64.2,59.9,29.95,West,270,4.0,4.0,86,0.00,,,0.00,meteohub,2013-06-04 15:16:00,
2013-06-04 08:21:00,64.4,60.1,29.95,West,270,3.0,5.0,86,0.00,,,0.00,meteohub,2013-06-04 15:21:00,
2013-06-04 08:26:00,64.6,60.3,29.95,West,270,2.0,6.0,86,0.00,,,0.00,meteohub,2013-06-04 15:26:00,
2013-06-04 08:31:00,64.8,59.5,29.95,West,270,2.0,6.0,83,0.00,,,0.00,meteohub,2013-06-04 15:31:00,
2013-06-04 08:37:00,64.9,59.4,29.95,West,270,2.0,4.0,82,0.00,,,0.00,meteohub,2013-06-04 15:37:00,
2013-06-04 08:42:00,65.1,59.2,29.96,West,270,4.0,4.0,81,0.00,,,0.00,meteohub,2013-06-04 15:42:00,
2013-06-04 08:47:00,65.3,59.4,29.96,SW,225,2.0,7.0,81,0.00,,,0.00,meteohub,2013-06-04 15:47:00,
2013-06-04 08:52:00,65.5,59.2,29.96,West,270,2.0,7.0,80,0.00,,,0.00,meteohub,2013-06-04 15:52:00,
2013-06-04 08:57:00,65.5,58.8,29.96,WNW,293,4.0,7.0,79,0.00,,,0.00,meteohub,2013-06-04 15:57:00,
2013-06-04 09:02:00,65.5,58.5,29.96,West,270,6.0,6.0,78,0.00,,,0.00,meteohub,2013-06-04 16:02:00,
2013-06-04 09:07:00,65.8,58.8,29.96,West,270,3.0,6.0,78,0.00,,,0.00,meteohub,2013-06-04 16:07:00,
2013-06-04 09:12:00,65.8,58.8,29.96,WNW,293,2.0,6.0,78,0.00,,,0.00,meteohub,2013-06-04 16:12:00,
2013-06-04 09:17:00,66.2,58.8,29.96,South,180,2.0,6.0,77,0.00,,,0.00,meteohub,2013-06-04 16:17:00,
2013-06-04 09:22:00,66.7,59.4,29.96,South,180,3.0,4.0,77,0.00,,,0.00,meteohub,2013-06-04 16:22:00,
2013-06-04 09:27:00,66.7,58.6,29.96,West,270,4.0,4.0,75,0.00,,,0.00,meteohub,2013-06-04 16:27:00,
2013-06-04 09:32:00,66.7,58.6,29.96,South,180,1.0,5.0,75,0.00,,,0.00,meteohub,2013-06-04 16:32:00,
2013-06-04 09:37:00,67.3,59.0,29.96,South,180,2.0,5.0,75,0.00,,,0.00,meteohub,2013-06-04 16:37:00,
2013-06-04 09:42:00,67.6,58.6,29.96,West,270,2.0,5.0,73,0.00,,,0.00,meteohub,2013-06-04 16:42:00,
2013-06-04 09:47:00,67.8,58.5,29.96,West,270,3.0,3.0,72,0.00,,,0.00,meteohub,2013-06-04 16:47:00,
2013-06-04 09:52:00,67.8,58.5,29.96,South,180,3.0,4.0,72,0.00,,,0.00,meteohub,2013-06-04 16:52:00,
2013-06-04 09:57:00,68.0,59.0,29.96,West,270,2.0,5.0,73,0.00,,,0.00,meteohub,2013-06-04 16:57:00,
2013-06-04 10:02:00,68.0,59.0,29.96,West,270,2.0,5.0,73,0.00,,,0.00,meteohub,2013-06-04 17:02:00,
2013-06-04 10:07:00,67.8,58.5,29.96,West,270,4.0,5.0,72,0.00,,,0.00,meteohub,2013-06-04 17:07:00,
2013-06-04 10:12:00,67.6,58.6,29.96,West,270,3.0,5.0,73,0.00,,,0.00,meteohub,2013-06-04 17:12:00,
2013-06-04 10:17:00,67.6,58.6,29.96,NW,315,1.0,6.0,73,0.00,,,0.00,meteohub,2013-06-04 17:17:00,
2013-06-04 10:22:00,68.2,58.8,29.96,West,270,4.0,6.0,72,0.00,,,0.00,meteohub,2013-06-04 17:22:00,
2013-06-04 10:27:00,68.4,58.6,29.96,South,180,3.0,5.0,71,0.00,,,0.00,meteohub,2013-06-04 17:27:00,
2013-06-04 10:32:00,68.7,58.5,29.97,NW,315,2.0,5.0,70,0.00,,,0.00,meteohub,2013-06-04 17:32:00,
2013-06-04 10:37:00,69.1,58.5,29.97,NW,315,7.0,7.0,69,0.00,,,0.00,meteohub,2013-06-04 17:37:00,
2013-06-04 10:42:00,68.5,58.8,29.97,NW,315,4.0,7.0,71,0.00,,,0.00,meteohub,2013-06-04 17:42:00,
2013-06-04 10:47:00,68.0,59.0,29.97,NW,315,7.0,7.0,73,0.00,,,0.00,meteohub,2013-06-04 17:47:00,
2013-06-04 10:52:00,67.6,59.0,29.97,SW,225,5.0,7.0,74,0.00,,,0.00,meteohub,2013-06-04 17:52:00,
2013-06-04 10:57:00,67.6,59.0,29.97,West,270,5.0,9.0,74,0.00,,,0.00,meteohub,2013-06-04 17:57:00,
2013-06-04 11:02:00,67.8,58.8,29.97,NW,315,5.0,9.0,73,0.00,,,0.00,meteohub,2013-06-04 18:02:00,
2013-06-04 11:07:00,68.0,59.0,29.97,WNW,293,4.0,8.0,73,0.00,,,0.00,meteohub,2013-06-04 18:07:00,
2013-06-04 11:12:00,68.0,59.0,29.97,West,270,9.0,9.0,73,0.00,,,0.00,meteohub,2013-06-04 18:12:00,
2013-06-04 11:17:00,68.0,59.0,29.97,West,270,4.0,9.0,73,0.00,,,0.00,meteohub,2013-06-04 18:17:00,
2013-06-04 11:22:00,68.4,59.0,29.97,West,270,7.0,9.0,72,0.00,,,0.00,meteohub,2013-06-04 18:22:00,
2013-06-04 11:27:00,68.4,58.6,29.97,NW,315,6.0,9.0,71,0.00,,,0.00,meteohub,2013-06-04 18:27:00,
2013-06-04 11:32:00,69.1,58.8,29.97,NW,315,5.0,9.0,70,0.00,,,0.00,meteohub,2013-06-04 18:32:00,
2013-06-04 11:37:00,69.4,58.8,29.97,NW,315,8.0,9.0,69,0.00,,,0.00,meteohub,2013-06-04 18:37:00,
2013-06-04 11:42:00,70.0,58.5,29.97,NW,315,8.0,9.0,67,0.00,,,0.00,meteohub,2013-06-04 18:42:00,
2013-06-04 11:47:00,70.0,59.0,29.97,West,270,6.0,9.0,68,0.00,,,0.00,meteohub,2013-06-04 18:47:00,
2013-06-04 11:52:00,70.7,59.2,29.97,NW,315,9.0,9.0,67,0.00,,,0.00,meteohub,2013-06-04 18:52:00,
2013-06-04 11:57:00,71.2,58.8,29.97,West,270,10.0,10.0,65,0.00,,,0.00,meteohub,2013-06-04 18:57:00,
2013-06-04 12:02:00,70.9,59.0,29.97,NW,315,4.0,10.0,66,0.00,,,0.00,meteohub,2013-06-04 19:02:00,
2013-06-04 12:07:00,71.6,59.2,29.97,WNW,293,6.0,10.0,65,0.00,,,0.00,meteohub,2013-06-04 19:07:00,
2013-06-04 12:12:00,71.6,59.7,29.96,West,270,8.0,10.0,66,0.00,,,0.00,meteohub,2013-06-04 19:12:00,
2013-06-04 12:17:00,71.2,59.4,29.97,West,270,8.0,12.0,66,0.00,,,0.00,meteohub,2013-06-04 19:17:00,
2013-06-04 12:22:00,72.9,59.5,29.97,NW,315,6.0,12.0,63,0.00,,,0.00,meteohub,2013-06-04 19:22:00,
2013-06-04 12:27:00,72.7,59.4,29.97,West,270,6.0,12.0,63,0.00,,,0.00,meteohub,2013-06-04 19:27:00,
2013-06-04 12:32:00,74.3,59.5,29.97,West,270,11.0,11.0,60,0.00,,,0.00,meteohub,2013-06-04 19:32:00,
2013-06-04 12:37:00,72.9,59.0,29.97,NW,315,8.0,11.0,62,0.00,,,0.00,meteohub,2013-06-04 19:37:00,
2013-06-04 12:42:00,71.8,59.4,29.97,WNW,293,3.0,11.0,65,0.00,,,0.00,meteohub,2013-06-04 19:42:00,
2013-06-04 12:47:00,72.3,60.3,29.97,NW,315,4.0,11.0,66,0.00,,,0.00,meteohub,2013-06-04 19:47:00,
2013-06-04 12:52:00,73.9,59.7,29.97,NW,315,7.0,12.0,61,0.00,,,0.00,meteohub,2013-06-04 19:52:00,
2013-06-04 12:57:00,74.7,59.4,29.97,West,270,9.0,12.0,59,0.00,,,0.00,meteohub,2013-06-04 19:57:00,
2013-06-04 13:02:00,73.0,59.2,29.97,North,0,6.0,12.0,62,0.00,,,0.00,meteohub,2013-06-04 20:02:00,
2013-06-04 13:07:00,72.7,59.7,29.97,West,270,8.0,13.0,64,0.00,,,0.00,meteohub,2013-06-04 20:07:00,
2013-06-04 13:12:00,73.8,59.0,29.96,NW,315,11.0,13.0,60,0.00,,,0.00,meteohub,2013-06-04 20:12:00,
2013-06-04 13:17:00,73.0,59.7,29.96,WNW,293,7.0,13.0,63,0.00,,,0.00,meteohub,2013-06-04 20:17:00,
2013-06-04 13:22:00,72.7,59.7,29.96,NW,315,9.0,11.0,64,0.00,,,0.00,meteohub,2013-06-04 20:22:00,
2013-06-04 13:27:00,71.8,59.0,29.96,West,270,8.0,14.0,64,0.00,,,0.00,meteohub,2013-06-04 20:27:00,
2013-06-04 13:32:00,70.9,59.4,29.96,West,270,9.0,14.0,67,0.00,,,0.00,meteohub,2013-06-04 20:32:00,
2013-06-04 13:37:00,70.9,60.3,29.96,NW,315,6.0,14.0,69,0.00,,,0.00,meteohub,2013-06-04 20:37:00,
2013-06-04 13:42:00,72.5,60.1,29.95,West,270,4.0,10.0,65,0.00,,,0.00,meteohub,2013-06-04 20:42:00,
2013-06-04 13:47:00,73.4,60.1,29.95,West,270,6.0,10.0,63,0.00,,,0.00,meteohub,2013-06-04 20:47:00,
2013-06-04 13:52:00,72.0,59.2,29.95,West,270,7.0,10.0,64,0.00,,,0.00,meteohub,2013-06-04 20:52:00,
2013-06-04 13:57:00,71.2,58.8,29.96,NW,315,7.0,8.0,65,0.00,,,0.00,meteohub,2013-06-04 20:57:00,
2013-06-04 14:02:00,71.6,59.7,29.96,WNW,293,11.0,11.0,66,0.00,,,0.00,meteohub,2013-06-04 21:02:00,
2013-06-04 14:07:00,71.8,59.4,29.95,West,270,10.0,11.0,65,0.00,,,0.00,meteohub,2013-06-04 21:07:00,
2013-06-04 14:12:00,72.7,59.4,29.95,WNW,293,9.0,13.0,63,0.00,,,0.00,meteohub,2013-06-04 21:12:00,
2013-06-04 14:17:00,73.0,59.2,29.95,West,270,6.0,13.0,62,0.00,,,0.00,meteohub,2013-06-04 21:17:00,
2013-06-04 14:22:00,73.4,59.2,29.95,WNW,293,8.0,13.0,61,0.00,,,0.00,meteohub,2013-06-04 21:22:00,
2013-06-04 14:27:00,73.2,59.4,29.95,WNW,293,8.0,11.0,62,0.00,,,0.00,meteohub,2013-06-04 21:27:00,
2013-06-04 14:32:00,73.8,60.4,29.95,NW,315,6.0,13.0,63,0.00,,,0.00,meteohub,2013-06-04 21:32:00,
2013-06-04 14:37:00,74.5,59.7,29.94,NW,315,7.0,13.0,60,0.00,,,0.00,meteohub,2013-06-04 21:37:00,
2013-06-04 14:42:00,74.7,60.8,29.94,NNW,338,10.0,13.0,62,0.00,,,0.00,meteohub,2013-06-04 21:42:00,
2013-06-04 14:47:00,73.4,60.1,29.94,NW,315,10.0,11.0,63,0.00,,,0.00,meteohub,2013-06-04 21:47:00,
2013-06-04 14:52:00,73.4,60.4,29.94,West,270,8.0,13.0,64,0.00,,,0.00,meteohub,2013-06-04 21:52:00,
2013-06-04 14:57:00,74.1,60.3,29.94,North,0,11.0,13.0,62,0.00,,,0.00,meteohub,2013-06-04 21:57:00,
2013-06-04 15:02:00,74.1,59.7,29.94,NW,315,11.0,13.0,61,0.00,,,0.00,meteohub,2013-06-04 22:02:00,
2013-06-04 15:07:00,72.7,59.7,29.94,West,270,12.0,13.0,64,0.00,,,0.00,meteohub,2013-06-04 22:07:00,
2013-06-04 15:12:00,72.7,60.3,29.94,WNW,293,9.0,13.0,65,0.00,,,0.00,meteohub,2013-06-04 22:12:00,
2013-06-04 15:17:00,73.4,59.5,29.94,WNW,293,11.0,13.0,62,0.00,,,0.00,meteohub,2013-06-04 22:17:00,
2013-06-04 15:22:00,73.6,59.4,29.94,West,270,9.0,13.0,61,0.00,,,0.00,meteohub,2013-06-04 22:22:00,
2013-06-04 15:27:00,73.2,59.9,29.94,NW,315,6.0,11.0,63,0.00,,,0.00,meteohub,2013-06-04 22:27:00,
2013-06-04 15:32:00,74.1,59.4,29.94,NW,315,11.0,11.0,60,0.00,,,0.00,meteohub,2013-06-04 22:32:00,
2013-06-04 15:37:00,73.6,59.7,29.94,West,270,9.0,11.0,62,0.00,,,0.00,meteohub,2013-06-04 22:37:00,
2013-06-04 15:42:00,72.9,60.4,29.93,North,0,10.0,11.0,65,0.00,,,0.00,meteohub,2013-06-04 22:42:00,
2013-06-04 15:47:00,73.2,59.9,29.93,NW,315,11.0,15.0,63,0.00,,,0.00,meteohub,2013-06-04 22:47:00,
2013-06-04 15:52:00,73.2,60.8,29.93,NW,315,7.0,15.0,65,0.00,,,0.00,meteohub,2013-06-04 22:52:00,
2013-06-04 15:57:00,73.2,60.3,29.93,WNW,293,7.0,14.0,64,0.00,,,0.00,meteohub,2013-06-04 22:57:00,
2013-06-04 16:02:00,73.4,60.1,29.93,NW,315,8.0,14.0,63,0.00,,,0.00,meteohub,2013-06-04 23:02:00,
2013-06-04 16:07:00,72.9,60.4,29.93,NNW,338,9.0,14.0,65,0.00,,,0.00,meteohub,2013-06-04 23:07:00,
2013-06-04 16:12:00,72.9,59.0,29.93,WNW,293,12.0,14.0,62,0.00,,,0.00,meteohub,2013-06-04 23:12:00,
2013-06-04 16:17:00,72.5,60.1,29.92,NW,315,11.0,14.0,65,0.00,,,0.00,meteohub,2013-06-04 23:17:00,
2013-06-04 16:22:00,72.7,60.3,29.93,WNW,293,13.0,14.0,65,0.00,,,0.00,meteohub,2013-06-04 23:22:00,
2013-06-04 16:27:00,72.3,60.3,29.93,West,270,9.0,14.0,66,0.00,,,0.00,meteohub,2013-06-04 23:27:00,
2013-06-04 16:32:00,72.3,59.9,29.92,NW,315,12.0,14.0,65,0.00,,,0.00,meteohub,2013-06-04 23:32:00,
2013-06-04 16:37:00,71.6,60.4,29.92,NW,315,11.0,13.0,68,0.00,,,0.00,meteohub,2013-06-04 23:37:00,
2013-06-04 16:43:00,71.4,60.8,29.92,NW,315,9.0,14.0,69,0.00,,,0.00,meteohub,2013-06-04 23:43:00,
2013-06-04 16:48:00,71.2,60.6,29.92,West,270,11.0,14.0,69,0.00,,,0.00,meteohub,2013-06-04 23:48:00,
2013-06-04 16:52:00,72.0,60.8,29.92,WNW,293,8.0,16.0,68,0.00,,,0.00,meteohub,2013-06-04 23:52:00,
2013-06-04 16:58:00,71.6,60.4,29.92,WNW,293,9.0,16.0,68,0.00,,,0.00,meteohub,2013-06-04 23:58:00,
2013-06-04 17:03:00,70.9,60.3,29.92,WNW,293,12.0,16.0,69,0.00,,,0.00,meteohub,2013-06-05 00:03:00,
2013-06-04 17:08:00,70.5,60.3,29.92,West,270,11.0,15.0,70,0.00,,,0.00,meteohub,2013-06-05 00:08:00,
2013-06-04 17:13:00,71.4,60.3,29.92,NW,315,11.0,15.0,68,0.00,,,0.00,meteohub,2013-06-05 00:13:00,
2013-06-04 17:18:00,71.4,60.8,29.92,West,270,10.0,15.0,69,0.00,,,0.00,meteohub,2013-06-05 00:18:00,
2013-06-04 17:23:00,70.3,60.1,29.92,West,270,13.0,13.0,70,0.00,,,0.00,meteohub,2013-06-05 00:23:00,
2013-06-04 17:28:00,69.8,60.8,29.92,NW,315,8.0,16.0,73,0.00,,,0.00,meteohub,2013-06-05 00:28:00,
2013-06-04 17:33:00,69.8,60.4,29.92,WNW,293,14.0,16.0,72,0.00,,,0.00,meteohub,2013-06-05 00:33:00,
2013-06-04 17:38:00,69.6,60.3,29.93,NW,315,11.0,16.0,72,0.00,,,0.00,meteohub,2013-06-05 00:38:00,
2013-06-04 17:43:00,69.3,60.3,29.93,NW,315,15.0,16.0,73,0.00,,,0.00,meteohub,2013-06-05 00:43:00,
2013-06-04 17:48:00,69.3,60.3,29.92,NW,315,8.0,16.0,73,0.00,,,0.00,meteohub,2013-06-05 00:48:00,
2013-06-04 17:53:00,69.8,59.9,29.92,NW,315,11.0,16.0,71,0.00,,,0.00,meteohub,2013-06-05 00:53:00,
2013-06-04 17:58:00,69.6,59.4,29.92,NW,315,12.0,16.0,70,0.00,,,0.00,meteohub,2013-06-05 00:58:00,
2013-06-04 18:03:00,69.4,60.4,29.92,West,270,10.0,16.0,73,0.00,,,0.00,meteohub,2013-06-05 01:03:00,
2013-06-04 18:08:00,69.3,59.9,29.93,NW,315,17.0,17.0,72,0.00,,,0.00,meteohub,2013-06-05 01:08:00,
2013-06-04 18:13:00,68.9,59.9,29.93,North,0,14.0,17.0,73,0.00,,,0.00,meteohub,2013-06-05 01:13:00,
2013-06-04 18:18:00,68.7,60.1,29.93,NW,315,13.0,17.0,74,0.00,,,0.00,meteohub,2013-06-05 01:18:00,
2013-06-04 18:23:00,68.7,60.1,29.93,WNW,293,10.0,17.0,74,0.00,,,0.00,meteohub,2013-06-05 01:23:00,
2013-06-04 18:28:00,68.5,60.3,29.93,NW,315,9.0,15.0,75,0.00,,,0.00,meteohub,2013-06-05 01:28:00,
2013-06-04 18:33:00,68.5,60.3,29.93,NW,315,10.0,16.0,75,0.00,,,0.00,meteohub,2013-06-05 01:33:00,
2013-06-04 18:38:00,68.5,59.5,29.93,NW,315,15.0,16.0,73,0.00,,,0.00,meteohub,2013-06-05 01:38:00,
2013-06-04 18:43:00,68.2,59.9,29.94,NW,315,13.0,16.0,75,0.00,,,0.00,meteohub,2013-06-05 01:43:00,
2013-06-04 18:48:00,68.2,59.9,29.94,NW,315,14.0,16.0,75,0.00,,,0.00,meteohub,2013-06-05 01:48:00,
2013-06-04 18:53:00,68.2,60.3,29.94,NW,315,10.0,15.0,76,0.00,,,0.00,meteohub,2013-06-05 01:53:00,
2013-06-04 18:58:00,68.5,60.3,29.94,NW,315,11.0,14.0,75,0.00,,,0.00,meteohub,2013-06-05 01:58:00,
2013-06-04 19:03:00,67.8,59.9,29.94,NW,315,11.0,14.0,76,0.00,,,0.00,meteohub,2013-06-05 02:03:00,
2013-06-04 19:08:00,67.6,60.3,29.94,NW,315,9.0,12.0,77,0.00,,,0.00,meteohub,2013-06-05 02:08:00,
2013-06-04 19:13:00,66.9,60.3,29.94,NW,315,9.0,12.0,79,0.00,,,0.00,meteohub,2013-06-05 02:13:00,
2013-06-04 19:18:00,66.4,60.1,29.94,WNW,293,9.0,12.0,80,0.00,,,0.00,meteohub,2013-06-05 02:18:00,
2013-06-04 19:23:00,66.4,60.1,29.94,WNW,293,8.0,12.0,80,0.00,,,0.00,meteohub,2013-06-05 02:23:00,
2013-06-04 19:28:00,66.4,60.1,29.95,West,270,8.0,12.0,80,0.00,,,0.00,meteohub,2013-06-05 02:28:00,
2013-06-04 19:33:00,66.6,60.3,29.95,NW,315,8.0,11.0,80,0.00,,,0.00,meteohub,2013-06-05 02:33:00,
2013-06-04 19:38:00,66.2,59.5,29.95,NW,315,6.0,11.0,79,0.00,,,0.00,meteohub,2013-06-05 02:38:00,
2013-06-04 19:43:00,66.0,59.7,29.95,North,0,4.0,9.0,80,0.00,,,0.00,meteohub,2013-06-05 02:43:00,
2013-06-04 19:48:00,65.8,59.5,29.95,WNW,293,7.0,9.0,80,0.00,,,0.00,meteohub,2013-06-05 02:48:00,
2013-06-04 19:53:00,65.5,59.5,29.95,NW,315,4.0,8.0,81,0.00,,,0.00,meteohub,2013-06-05 02:53:00,
2013-06-04 19:58:00,65.5,59.5,29.96,NW,315,5.0,7.0,81,0.00,,,0.00,meteohub,2013-06-05 02:58:00,
2013-06-04 20:03:00,65.5,59.5,29.96,North,0,3.0,7.0,81,0.00,,,0.00,meteohub,2013-06-05 03:03:00,
2013-06-04 20:08:00,65.3,59.7,29.96,WNW,293,7.0,7.0,82,0.00,,,0.00,meteohub,2013-06-05 03:08:00,
2013-06-04 20:13:00,65.3,59.7,29.96,NW,315,2.0,7.0,82,0.00,,,0.00,meteohub,2013-06-05 03:13:00,
2013-06-04 20:18:00,65.3,59.7,29.96,NE,45,2.0,7.0,82,0.00,,,0.00,meteohub,2013-06-05 03:18:00,
2013-06-04 20:23:00,64.9,59.4,29.96,NE,45,7.0,7.0,82,0.00,,,0.00,meteohub,2013-06-05 03:23:00,
2013-06-04 20:28:00,64.8,59.5,29.95,North,0,8.0,8.0,83,0.00,,,0.00,meteohub,2013-06-05 03:28:00,
2013-06-04 20:33:00,64.2,59.4,29.96,NE,45,3.0,9.0,84,0.00,,,0.00,meteohub,2013-06-05 03:33:00,
2013-06-04 20:38:00,63.9,59.2,29.96,NNE,23,7.0,9.0,85,0.00,,,0.00,meteohub,2013-06-05 03:38:00,
2013-06-04 20:43:00,63.7,59.0,29.96,North,0,3.0,9.0,85,0.00,,,0.00,meteohub,2013-06-05 03:43:00,
2013-06-04 20:48:00,63.3,59.0,29.96,NNE,23,7.0,8.0,86,0.00,,,0.00,meteohub,2013-06-05 03:48:00,
2013-06-04 20:53:00,63.1,58.8,29.96,NE,45,4.0,8.0,86,0.00,,,0.00,meteohub,2013-06-05 03:53:00,
2013-06-04 20:58:00,63.0,59.0,29.96,North,0,5.0,7.0,87,0.00,,,0.00,meteohub,2013-06-05 03:58:00,
2013-06-04 21:01:00,62.8,58.8,29.96,North,0,4.0,7.0,87,0.00,,,0.00,meteohub,2013-06-05 04:01:00,
2013-06-04 21:02:00,62.8,58.8,29.96,North,0,3.0,7.0,87,0.00,,,0.00,meteohub,2013-06-05 04:02:00,
2013-06-04 21:07:00,62.6,59.0,29.96,North,0,4.0,6.0,88,0.00,,,0.00,meteohub,2013-06-05 04:07:00,
2013-06-04 21:12:00,62.6,59.0,29.96,North,0,2.0,5.0,88,0.00,,,0.00,meteohub,2013-06-05 04:12:00,
2013-06-04 21:17:00,62.4,59.2,29.97,North,0,5.0,5.0,89,0.00,,,0.00,meteohub,2013-06-05 04:17:00,
2013-06-04 21:22:00,62.2,59.0,29.97,North,0,4.0,7.0,89,0.00,,,0.00,meteohub,2013-06-05 04:22:00,
2013-06-04 21:27:00,62.2,59.0,29.97,North,0,3.0,7.0,89,0.00,,,0.00,meteohub,2013-06-05 04:27:00,
2013-06-04 21:32:00,62.1,59.2,29.97,North,0,5.0,7.0,90,0.00,,,0.00,meteohub,2013-06-05 04:32:00,
2013-06-04 21:37:00,62.1,59.2,29.98,North,0,3.0,5.0,90,0.00,,,0.00,meteohub,2013-06-05 04:37:00,
2013-06-04 21:42:00,62.1,59.4,29.97,North,0,3.0,5.0,91,0.00,,,0.00,meteohub,2013-06-05 04:42:00,
2013-06-04 21:47:00,62.1,59.4,29.97,WNW,293,2.0,5.0,91,0.00,,,0.00,meteohub,2013-06-05 04:47:00,
2013-06-04 21:52:00,61.9,59.2,29.98,North,0,2.0,5.0,91,0.00,,,0.00,meteohub,2013-06-05 04:52:00,
2013-06-04 21:57:00,61.9,59.2,29.98,North,0,2.0,5.0,91,0.00,,,0.00,meteohub,2013-06-05 04:57:00,
2013-06-04 22:02:00,61.7,59.0,29.98,North,0,3.0,5.0,91,0.00,,,0.00,meteohub,2013-06-05 05:02:00,
2013-06-04 22:07:00,61.7,59.4,29.99,NW,315,2.0,4.0,92,0.00,,,0.00,meteohub,2013-06-05 05:07:00,
2013-06-04 22:12:00,61.7,59.4,29.99,North,0,2.0,4.0,92,0.00,,,0.00,meteohub,2013-06-05 05:12:00,
2013-06-04 22:17:00,61.7,59.4,29.99,North,0,3.0,4.0,92,0.00,,,0.00,meteohub,2013-06-05 05:17:00,
2013-06-04 22:22:00,61.7,59.4,29.99,North,0,1.0,4.0,92,0.00,,,0.00,meteohub,2013-06-05 05:22:00,
2013-06-04 22:27:00,61.7,59.4,29.99,North,0,0.0,3.0,92,0.00,,,0.00,meteohub,2013-06-05 05:27:00,
2013-06-04 22:32:00,61.7,59.4,29.99,North,0,2.0,3.0,92,0.00,,,0.00,meteohub,2013-06-05 05:32:00,
2013-06-04 22:37:00,61.9,59.9,29.99,North,0,2.0,3.0,93,0.00,,,0.00,meteohub,2013-06-05 05:37:00,
2013-06-04 22:42:00,62.1,60.1,29.99,North,0,2.0,3.0,93,0.00,,,0.00,meteohub,2013-06-05 05:42:00,
2013-06-04 22:47:00,62.2,59.9,29.99,North,0,2.0,3.0,92,0.00,,,0.00,meteohub,2013-06-05 05:47:00,
2013-06-04 22:52:00,62.2,59.9,29.99,North,0,1.0,3.0,92,0.00,,,0.00,meteohub,2013-06-05 05:52:00,
2013-06-04 22:57:00,62.2,59.9,29.99,North,0,2.0,4.0,92,0.00,,,0.00,meteohub,2013-06-05 05:57:00,
2013-06-04 23:02:00,62.4,59.7,29.99,North,0,2.0,4.0,91,0.00,,,0.00,meteohub,2013-06-05 06:02:00,
2013-06-04 23:07:00,62.4,59.7,29.99,North,0,2.0,3.0,91,0.00,,,0.00,meteohub,2013-06-05 06:07:00,
2013-06-04 23:12:00,62.4,59.7,29.99,North,0,2.0,2.0,91,0.00,,,0.00,meteohub,2013-06-05 06:12:00,
2013-06-04 23:17:00,62.6,59.9,29.99,North,0,2.0,2.0,91,0.00,,,0.00,meteohub,2013-06-05 06:17:00,
2013-06-04 23:22:00,62.6,59.9,29.99,North,0,4.0,4.0,91,0.00,,,0.00,meteohub,2013-06-05 06:22:00,
2013-06-04 23:27:00,62.8,60.1,29.99,North,0,2.0,4.0,91,0.00,,,0.00,meteohub,2013-06-05 06:27:00,
2013-06-04 23:32:00,63.3,60.3,29.99,North,0,3.0,4.0,90,0.00,,,0.00,meteohub,2013-06-05 06:32:00,
2013-06-04 23:37:00,63.0,59.9,29.99,North,0,2.0,4.0,90,0.00,,,0.00,meteohub,2013-06-05 06:37:00,
2013-06-04 23:42:00,63.0,59.9,29.98,North,0,2.0,4.0,90,0.00,,,0.00,meteohub,2013-06-05 06:42:00,
2013-06-04 23:47:00,63.1,60.1,29.98,North,0,2.0,3.0,90,0.00,,,0.00,meteohub,2013-06-05 06:47:00,
2013-06-04 23:52:00,63.1,59.9,29.98,North,0,3.0,3.0,89,0.00,,,0.00,meteohub,2013-06-05 06:52:00,
2013-06-04 23:58:00,63.1,59.9,29.98,North,0,3.0,4.0,89,0.00,,,0.00,meteohub,2013-06-05 06:58:00,